sensor_id;sensor_type;location;lat;lon;timestamp;temperature;humidity
22986;DHT22;11659;51.092;7.080;2022-08-25T00:01:16;23.10;81.60
22986;DHT22;11659;51.092;7.080;2022-08-25T00:03:43;23.10;81.60
22986;DHT22;11659;51.092;7.080;2022-08-25T00:06:10;23.10;81.70
22986;DHT22;11659;51.092;7.080;2022-08-25T00:08:36;23.10;81.80
22986;DHT22;11659;51.092;7.080;2022-08-25T00:11:04;23.00;81.80
22986;DHT22;11659;51.092;7.080;2022-08-25T00:13:31;23.00;82.00
22986;DHT22;11659;51.092;7.080;2022-08-25T00:15:57;22.90;82.20
22986;DHT22;11659;51.092;7.080;2022-08-25T00:18:25;22.90;82.40
22986;DHT22;11659;51.092;7.080;2022-08-25T00:20:51;22.80;82.50
22986;DHT22;11659;51.092;7.080;2022-08-25T00:23:17;22.80;82.70
22986;DHT22;11659;51.092;7.080;2022-08-25T00:25:43;22.70;82.80
22986;DHT22;11659;51.092;7.080;2022-08-25T00:28:09;22.60;82.90
22986;DHT22;11659;51.092;7.080;2022-08-25T00:30:35;22.60;83.10
22986;DHT22;11659;51.092;7.080;2022-08-25T00:33:01;22.50;83.20
22986;DHT22;11659;51.092;7.080;2022-08-25T00:35:30;22.50;83.40
22986;DHT22;11659;51.092;7.080;2022-08-25T00:37:56;22.40;83.60
22986;DHT22;11659;51.092;7.080;2022-08-25T00:40:24;22.40;83.70
22986;DHT22;11659;51.092;7.080;2022-08-25T00:42:50;22.40;83.90
22986;DHT22;11659;51.092;7.080;2022-08-25T00:45:16;22.40;84.10
22986;DHT22;11659;51.092;7.080;2022-08-25T00:47:43;22.30;84.20
22986;DHT22;11659;51.092;7.080;2022-08-25T00:50:10;22.30;84.30
22986;DHT22;11659;51.092;7.080;2022-08-25T00:52:42;22.20;84.30
22986;DHT22;11659;51.092;7.080;2022-08-25T00:55:15;22.20;84.50
22986;DHT22;11659;51.092;7.080;2022-08-25T00:57:46;22.20;85.30
22986;DHT22;11659;51.092;7.080;2022-08-25T01:00:17;22.10;84.70
22986;DHT22;11659;51.092;7.080;2022-08-25T01:02:44;22.10;84.90
22986;DHT22;11659;51.092;7.080;2022-08-25T01:05:10;22.10;85.10
22986;DHT22;11659;51.092;7.080;2022-08-25T01:07:39;22.10;85.20
22986;DHT22;11659;51.092;7.080;2022-08-25T01:10:07;22.00;85.30
22986;DHT22;11659;51.092;7.080;2022-08-25T01:12:34;22.00;85.40
22986;DHT22;11659;51.092;7.080;2022-08-25T01:15:05;21.90;85.40
22986;DHT22;11659;51.092;7.080;2022-08-25T01:17:43;21.90;85.60
22986;DHT22;11659;51.092;7.080;2022-08-25T01:20:10;21.90;85.80
22986;DHT22;11659;51.092;7.080;2022-08-25T01:22:37;21.80;85.80
22986;DHT22;11659;51.092;7.080;2022-08-25T01:25:10;21.80;86.00
22986;DHT22;11659;51.092;7.080;2022-08-25T01:27:41;21.80;86.10
22986;DHT22;11659;51.092;7.080;2022-08-25T01:30:08;21.80;86.20
22986;DHT22;11659;51.092;7.080;2022-08-25T01:32:34;21.70;86.30
22986;DHT22;11659;51.092;7.080;2022-08-25T01:35:00;21.70;86.40
22986;DHT22;11659;51.092;7.080;2022-08-25T01:37:26;21.70;86.60
22986;DHT22;11659;51.092;7.080;2022-08-25T01:39:53;21.70;86.80
22986;DHT22;11659;51.092;7.080;2022-08-25T01:42:31;21.60;86.80
22986;DHT22;11659;51.092;7.080;2022-08-25T01:44:59;21.60;87.00
22986;DHT22;11659;51.092;7.080;2022-08-25T01:47:25;21.60;87.10
22986;DHT22;11659;51.092;7.080;2022-08-25T01:49:51;21.50;87.10
22986;DHT22;11659;51.092;7.080;2022-08-25T01:52:27;21.50;87.20
22986;DHT22;11659;51.092;7.080;2022-08-25T01:54:55;21.50;87.30
22986;DHT22;11659;51.092;7.080;2022-08-25T01:57:21;21.50;87.40
22986;DHT22;11659;51.092;7.080;2022-08-25T01:59:47;21.50;87.50
22986;DHT22;11659;51.092;7.080;2022-08-25T02:02:14;21.50;87.70
22986;DHT22;11659;51.092;7.080;2022-08-25T02:04:40;21.40;87.70
22986;DHT22;11659;51.092;7.080;2022-08-25T02:07:07;21.40;87.80
22986;DHT22;11659;51.092;7.080;2022-08-25T02:09:33;21.40;88.00
22986;DHT22;11659;51.092;7.080;2022-08-25T02:12:01;21.30;88.10
22986;DHT22;11659;51.092;7.080;2022-08-25T02:14:27;21.30;88.30
22986;DHT22;11659;51.092;7.080;2022-08-25T02:16:53;21.30;88.40
22986;DHT22;11659;51.092;7.080;2022-08-25T02:19:21;21.30;88.60
22986;DHT22;11659;51.092;7.080;2022-08-25T02:21:49;21.20;88.60
22986;DHT22;11659;51.092;7.080;2022-08-25T02:24:16;21.20;89.50
22986;DHT22;11659;51.092;7.080;2022-08-25T02:26:43;21.20;88.90
22986;DHT22;11659;51.092;7.080;2022-08-25T02:29:10;21.20;89.00
22986;DHT22;11659;51.092;7.080;2022-08-25T02:31:37;21.20;89.10
22986;DHT22;11659;51.092;7.080;2022-08-25T02:34:04;21.10;89.90
22986;DHT22;11659;51.092;7.080;2022-08-25T02:36:31;21.10;89.40
22986;DHT22;11659;51.092;7.080;2022-08-25T02:38:57;21.10;89.60
22986;DHT22;11659;51.092;7.080;2022-08-25T02:41:24;21.10;89.70
22986;DHT22;11659;51.092;7.080;2022-08-25T02:43:52;21.00;89.90
22986;DHT22;11659;51.092;7.080;2022-08-25T02:46:19;21.00;90.00
22986;DHT22;11659;51.092;7.080;2022-08-25T02:48:46;21.00;90.10
22986;DHT22;11659;51.092;7.080;2022-08-25T02:51:13;21.00;90.20
22986;DHT22;11659;51.092;7.080;2022-08-25T02:53:40;20.90;90.20
22986;DHT22;11659;51.092;7.080;2022-08-25T02:56:07;20.90;90.30
22986;DHT22;11659;51.092;7.080;2022-08-25T02:58:34;20.80;90.40
22986;DHT22;11659;51.092;7.080;2022-08-25T03:01:01;20.80;90.60
22986;DHT22;11659;51.092;7.080;2022-08-25T03:03:28;20.80;90.60
22986;DHT22;11659;51.092;7.080;2022-08-25T03:05:54;20.80;90.70
22986;DHT22;11659;51.092;7.080;2022-08-25T03:08:22;20.70;90.80
22986;DHT22;11659;51.092;7.080;2022-08-25T03:10:48;20.70;90.90
22986;DHT22;11659;51.092;7.080;2022-08-25T03:13:15;20.60;91.00
22986;DHT22;11659;51.092;7.080;2022-08-25T03:15:42;20.60;91.20
22986;DHT22;11659;51.092;7.080;2022-08-25T03:18:09;20.60;91.70
22986;DHT22;11659;51.092;7.080;2022-08-25T03:20:39;20.50;91.70
22986;DHT22;11659;51.092;7.080;2022-08-25T03:23:05;20.40;91.90
22986;DHT22;11659;51.092;7.080;2022-08-25T03:25:31;20.40;92.10
22986;DHT22;11659;51.092;7.080;2022-08-25T03:28:16;20.30;92.20
22986;DHT22;11659;51.092;7.080;2022-08-25T03:30:43;20.20;92.30
22986;DHT22;11659;51.092;7.080;2022-08-25T03:33:10;20.10;92.40
22986;DHT22;11659;51.092;7.080;2022-08-25T03:35:37;20.10;92.50
22986;DHT22;11659;51.092;7.080;2022-08-25T03:38:04;20.10;92.60
22986;DHT22;11659;51.092;7.080;2022-08-25T03:40:30;20.00;92.70
22986;DHT22;11659;51.092;7.080;2022-08-25T03:42:56;20.00;92.70
22986;DHT22;11659;51.092;7.080;2022-08-25T03:45:22;19.90;92.70
22986;DHT22;11659;51.092;7.080;2022-08-25T03:47:50;19.90;92.80
22986;DHT22;11659;51.092;7.080;2022-08-25T03:50:18;19.90;92.90
22986;DHT22;11659;51.092;7.080;2022-08-25T03:52:50;19.90;93.00
22986;DHT22;11659;51.092;7.080;2022-08-25T03:55:17;19.90;93.10
22986;DHT22;11659;51.092;7.080;2022-08-25T03:57:43;19.90;93.20
22986;DHT22;11659;51.092;7.080;2022-08-25T04:00:10;19.90;93.20
22986;DHT22;11659;51.092;7.080;2022-08-25T04:02:39;19.90;93.30
22986;DHT22;11659;51.092;7.080;2022-08-25T04:05:06;19.90;93.30
22986;DHT22;11659;51.092;7.080;2022-08-25T04:07:32;19.90;93.40
22986;DHT22;11659;51.092;7.080;2022-08-25T04:10:00;19.90;93.40
22986;DHT22;11659;51.092;7.080;2022-08-25T04:12:28;19.90;93.50
22986;DHT22;11659;51.092;7.080;2022-08-25T04:14:54;19.90;93.60
22986;DHT22;11659;51.092;7.080;2022-08-25T04:17:20;19.80;93.60
22986;DHT22;11659;51.092;7.080;2022-08-25T04:19:47;19.80;93.70
22986;DHT22;11659;51.092;7.080;2022-08-25T04:22:13;19.80;94.10
22986;DHT22;11659;51.092;7.080;2022-08-25T04:24:39;19.80;94.00
22986;DHT22;11659;51.092;7.080;2022-08-25T04:27:07;19.80;94.00
22986;DHT22;11659;51.092;7.080;2022-08-25T04:29:33;19.80;94.10
22986;DHT22;11659;51.092;7.080;2022-08-25T04:31:59;19.80;94.10
22986;DHT22;11659;51.092;7.080;2022-08-25T04:34:26;19.80;94.20
22986;DHT22;11659;51.092;7.080;2022-08-25T04:36:52;19.90;94.20
22986;DHT22;11659;51.092;7.080;2022-08-25T04:39:19;19.90;94.30
22986;DHT22;11659;51.092;7.080;2022-08-25T04:41:49;19.90;94.30
22986;DHT22;11659;51.092;7.080;2022-08-25T04:44:17;19.90;94.30
22986;DHT22;11659;51.092;7.080;2022-08-25T04:46:43;20.00;94.40
22986;DHT22;11659;51.092;7.080;2022-08-25T04:49:09;20.00;94.40
22986;DHT22;11659;51.092;7.080;2022-08-25T04:51:37;20.00;94.50
22986;DHT22;11659;51.092;7.080;2022-08-25T04:54:06;20.00;94.50
22986;DHT22;11659;51.092;7.080;2022-08-25T04:56:33;20.00;94.50
22986;DHT22;11659;51.092;7.080;2022-08-25T04:59:02;20.00;94.60
22986;DHT22;11659;51.092;7.080;2022-08-25T05:01:30;20.00;94.70
22986;DHT22;11659;51.092;7.080;2022-08-25T05:03:58;20.00;94.70
22986;DHT22;11659;51.092;7.080;2022-08-25T05:06:24;20.10;94.80
22986;DHT22;11659;51.092;7.080;2022-08-25T05:08:51;20.10;94.90
22986;DHT22;11659;51.092;7.080;2022-08-25T05:11:18;20.10;94.90
22986;DHT22;11659;51.092;7.080;2022-08-25T05:13:45;20.10;95.00
22986;DHT22;11659;51.092;7.080;2022-08-25T05:16:11;20.10;95.00
22986;DHT22;11659;51.092;7.080;2022-08-25T05:18:39;20.10;95.10
22986;DHT22;11659;51.092;7.080;2022-08-25T05:21:07;20.10;95.20
22986;DHT22;11659;51.092;7.080;2022-08-25T05:23:34;20.10;95.30
22986;DHT22;11659;51.092;7.080;2022-08-25T05:26:02;20.10;95.30
22986;DHT22;11659;51.092;7.080;2022-08-25T05:28:29;20.10;95.40
22986;DHT22;11659;51.092;7.080;2022-08-25T05:30:57;20.20;95.50
22986;DHT22;11659;51.092;7.080;2022-08-25T05:33:24;20.20;95.50
22986;DHT22;11659;51.092;7.080;2022-08-25T05:35:51;20.20;95.60
22986;DHT22;11659;51.092;7.080;2022-08-25T05:38:17;20.20;95.60
22986;DHT22;11659;51.092;7.080;2022-08-25T05:40:43;20.30;95.70
22986;DHT22;11659;51.092;7.080;2022-08-25T05:43:09;20.30;95.80
22986;DHT22;11659;51.092;7.080;2022-08-25T05:45:37;20.30;95.80
22986;DHT22;11659;51.092;7.080;2022-08-25T05:48:03;20.30;95.80
22986;DHT22;11659;51.092;7.080;2022-08-25T05:50:30;20.40;95.90
22986;DHT22;11659;51.092;7.080;2022-08-25T05:52:57;20.40;96.00
22986;DHT22;11659;51.092;7.080;2022-08-25T05:55:23;20.40;96.00
22986;DHT22;11659;51.092;7.080;2022-08-25T05:57:49;20.50;96.00
22986;DHT22;11659;51.092;7.080;2022-08-25T06:00:17;20.60;96.00
22986;DHT22;11659;51.092;7.080;2022-08-25T06:02:45;20.60;96.00
22986;DHT22;11659;51.092;7.080;2022-08-25T06:05:17;20.70;96.00
22986;DHT22;11659;51.092;7.080;2022-08-25T06:07:43;20.70;95.90
22986;DHT22;11659;51.092;7.080;2022-08-25T06:10:12;20.80;95.90
22986;DHT22;11659;51.092;7.080;2022-08-25T06:12:40;20.90;95.90
22986;DHT22;11659;51.092;7.080;2022-08-25T06:15:10;20.90;95.90
22986;DHT22;11659;51.092;7.080;2022-08-25T06:17:36;21.00;95.90
22986;DHT22;11659;51.092;7.080;2022-08-25T06:20:07;21.10;95.90
22986;DHT22;11659;51.092;7.080;2022-08-25T06:22:34;21.20;95.90
22986;DHT22;11659;51.092;7.080;2022-08-25T06:25:00;21.30;95.80
22986;DHT22;11659;51.092;7.080;2022-08-25T06:27:28;21.40;95.70
22986;DHT22;11659;51.092;7.080;2022-08-25T06:29:54;21.50;95.70
22986;DHT22;11659;51.092;7.080;2022-08-25T06:32:20;21.60;95.60
22986;DHT22;11659;51.092;7.080;2022-08-25T06:34:46;21.70;95.50
22986;DHT22;11659;51.092;7.080;2022-08-25T06:37:12;21.80;95.40
22986;DHT22;11659;51.092;7.080;2022-08-25T06:39:38;21.90;95.30
22986;DHT22;11659;51.092;7.080;2022-08-25T06:42:04;22.00;95.30
22986;DHT22;11659;51.092;7.080;2022-08-25T06:44:32;22.10;95.20
22986;DHT22;11659;51.092;7.080;2022-08-25T06:46:58;22.20;95.30
22986;DHT22;11659;51.092;7.080;2022-08-25T06:49:24;22.30;94.90
22986;DHT22;11659;51.092;7.080;2022-08-25T06:51:53;22.40;94.70
22986;DHT22;11659;51.092;7.080;2022-08-25T06:54:19;22.50;94.60
22986;DHT22;11659;51.092;7.080;2022-08-25T06:56:45;22.60;94.50
22986;DHT22;11659;51.092;7.080;2022-08-25T06:59:12;22.80;94.40
22986;DHT22;11659;51.092;7.080;2022-08-25T07:01:39;22.90;94.30
22986;DHT22;11659;51.092;7.080;2022-08-25T07:04:06;23.00;94.20
22986;DHT22;11659;51.092;7.080;2022-08-25T07:06:33;23.10;94.00
22986;DHT22;11659;51.092;7.080;2022-08-25T07:09:04;23.20;93.90
22986;DHT22;11659;51.092;7.080;2022-08-25T07:11:30;23.30;93.80
22986;DHT22;11659;51.092;7.080;2022-08-25T07:13:59;23.40;93.70
22986;DHT22;11659;51.092;7.080;2022-08-25T07:16:26;23.40;93.50
22986;DHT22;11659;51.092;7.080;2022-08-25T07:18:53;23.60;93.40
22986;DHT22;11659;51.092;7.080;2022-08-25T07:21:21;23.70;93.20
22986;DHT22;11659;51.092;7.080;2022-08-25T07:23:47;23.80;93.10
22986;DHT22;11659;51.092;7.080;2022-08-25T07:26:16;23.90;93.00
22986;DHT22;11659;51.092;7.080;2022-08-25T07:28:43;23.90;92.90
22986;DHT22;11659;51.092;7.080;2022-08-25T07:31:09;24.00;92.80
22986;DHT22;11659;51.092;7.080;2022-08-25T07:33:35;24.10;92.70
22986;DHT22;11659;51.092;7.080;2022-08-25T07:36:03;24.20;92.60
22986;DHT22;11659;51.092;7.080;2022-08-25T07:38:29;24.30;92.50
22986;DHT22;11659;51.092;7.080;2022-08-25T07:41:00;24.40;92.50
22986;DHT22;11659;51.092;7.080;2022-08-25T07:43:26;24.50;92.50
22986;DHT22;11659;51.092;7.080;2022-08-25T07:45:53;24.60;92.30
22986;DHT22;11659;51.092;7.080;2022-08-25T07:48:19;24.60;92.10
22986;DHT22;11659;51.092;7.080;2022-08-25T07:50:46;24.70;91.90
22986;DHT22;11659;51.092;7.080;2022-08-25T07:53:15;24.80;91.90
22986;DHT22;11659;51.092;7.080;2022-08-25T07:55:42;24.90;91.90
22986;DHT22;11659;51.092;7.080;2022-08-25T07:58:09;25.00;91.70
22986;DHT22;11659;51.092;7.080;2022-08-25T08:00:36;25.10;91.50
22986;DHT22;11659;51.092;7.080;2022-08-25T08:03:03;25.10;91.50
22986;DHT22;11659;51.092;7.080;2022-08-25T08:05:30;25.20;91.40
22986;DHT22;11659;51.092;7.080;2022-08-25T08:07:56;25.30;91.40
22986;DHT22;11659;51.092;7.080;2022-08-25T08:10:25;25.40;91.20
22986;DHT22;11659;51.092;7.080;2022-08-25T08:12:51;25.50;91.00
22986;DHT22;11659;51.092;7.080;2022-08-25T08:15:18;25.60;90.90
22986;DHT22;11659;51.092;7.080;2022-08-25T08:17:45;25.70;90.50
22986;DHT22;11659;51.092;7.080;2022-08-25T08:20:11;25.70;90.30
22986;DHT22;11659;51.092;7.080;2022-08-25T08:22:40;25.80;90.30
22986;DHT22;11659;51.092;7.080;2022-08-25T08:25:07;25.90;90.30
22986;DHT22;11659;51.092;7.080;2022-08-25T08:27:35;26.00;90.30
22986;DHT22;11659;51.092;7.080;2022-08-25T08:30:03;26.10;90.20
22986;DHT22;11659;51.092;7.080;2022-08-25T08:32:30;26.20;90.10
22986;DHT22;11659;51.092;7.080;2022-08-25T08:34:56;26.30;90.00
22986;DHT22;11659;51.092;7.080;2022-08-25T08:37:22;26.40;89.60
22986;DHT22;11659;51.092;7.080;2022-08-25T08:39:48;26.40;89.00
22986;DHT22;11659;51.092;7.080;2022-08-25T08:42:27;26.50;88.90
22986;DHT22;11659;51.092;7.080;2022-08-25T08:45:09;26.60;88.60
22986;DHT22;11659;51.092;7.080;2022-08-25T08:47:52;26.70;88.20
22986;DHT22;11659;51.092;7.080;2022-08-25T08:50:29;26.70;88.10
22986;DHT22;11659;51.092;7.080;2022-08-25T08:53:02;26.80;88.00
22986;DHT22;11659;51.092;7.080;2022-08-25T08:55:35;26.90;88.00
22986;DHT22;11659;51.092;7.080;2022-08-25T08:58:04;27.00;88.00
22986;DHT22;11659;51.092;7.080;2022-08-25T09:00:38;27.00;87.60
22986;DHT22;11659;51.092;7.080;2022-08-25T09:03:06;27.10;87.30
22986;DHT22;11659;51.092;7.080;2022-08-25T09:05:42;27.20;86.80
22986;DHT22;11659;51.092;7.080;2022-08-25T09:08:10;27.20;86.60
22986;DHT22;11659;51.092;7.080;2022-08-25T09:10:44;27.30;86.60
22986;DHT22;11659;51.092;7.080;2022-08-25T09:13:20;27.30;86.50
22986;DHT22;11659;51.092;7.080;2022-08-25T09:15:53;27.40;86.20
22986;DHT22;11659;51.092;7.080;2022-08-25T09:18:48;27.50;85.90
22986;DHT22;11659;51.092;7.080;2022-08-25T09:21:22;27.60;85.70
22986;DHT22;11659;51.092;7.080;2022-08-25T09:24:19;27.70;85.40
22986;DHT22;11659;51.092;7.080;2022-08-25T09:26:59;27.80;85.00
22986;DHT22;11659;51.092;7.080;2022-08-25T09:29:39;27.90;84.70
22986;DHT22;11659;51.092;7.080;2022-08-25T09:32:08;28.00;84.50
22986;DHT22;11659;51.092;7.080;2022-08-25T09:34:34;28.00;84.50
22986;DHT22;11659;51.092;7.080;2022-08-25T09:37:01;28.10;84.50
22986;DHT22;11659;51.092;7.080;2022-08-25T09:39:27;28.20;84.40
22986;DHT22;11659;51.092;7.080;2022-08-25T09:41:55;28.30;83.80
22986;DHT22;11659;51.092;7.080;2022-08-25T09:44:24;28.40;83.30
22986;DHT22;11659;51.092;7.080;2022-08-25T09:46:55;28.50;83.70
22986;DHT22;11659;51.092;7.080;2022-08-25T09:49:30;28.60;83.60
22986;DHT22;11659;51.092;7.080;2022-08-25T09:52:22;28.70;83.20
22986;DHT22;11659;51.092;7.080;2022-08-25T09:54:49;28.70;81.90
22986;DHT22;11659;51.092;7.080;2022-08-25T09:57:28;28.80;81.60
22986;DHT22;11659;51.092;7.080;2022-08-25T09:59:54;28.90;79.60
22986;DHT22;11659;51.092;7.080;2022-08-25T10:02:22;28.90;79.70
22986;DHT22;11659;51.092;7.080;2022-08-25T10:04:51;28.90;79.30
22986;DHT22;11659;51.092;7.080;2022-08-25T10:07:22;28.90;79.40
22986;DHT22;11659;51.092;7.080;2022-08-25T10:09:52;29.00;79.00
22986;DHT22;11659;51.092;7.080;2022-08-25T10:12:20;29.00;78.70
22986;DHT22;11659;51.092;7.080;2022-08-25T10:14:49;29.00;78.80
22986;DHT22;11659;51.092;7.080;2022-08-25T10:17:18;29.10;79.00
22986;DHT22;11659;51.092;7.080;2022-08-25T10:19:51;29.10;79.40
22986;DHT22;11659;51.092;7.080;2022-08-25T10:22:23;29.20;79.70
22986;DHT22;11659;51.092;7.080;2022-08-25T10:24:51;29.40;79.20
22986;DHT22;11659;51.092;7.080;2022-08-25T10:27:28;29.50;77.50
22986;DHT22;11659;51.092;7.080;2022-08-25T10:30:05;29.50;76.40
22986;DHT22;11659;51.092;7.080;2022-08-25T10:32:44;29.60;76.20
22986;DHT22;11659;51.092;7.080;2022-08-25T10:35:18;29.70;76.60
22986;DHT22;11659;51.092;7.080;2022-08-25T10:38:03;29.70;76.80
22986;DHT22;11659;51.092;7.080;2022-08-25T10:40:39;29.80;76.60
22986;DHT22;11659;51.092;7.080;2022-08-25T10:43:16;29.90;76.40
22986;DHT22;11659;51.092;7.080;2022-08-25T10:45:47;30.00;75.80
22986;DHT22;11659;51.092;7.080;2022-08-25T10:48:39;30.00;75.60
22986;DHT22;11659;51.092;7.080;2022-08-25T10:51:32;30.10;76.00
22986;DHT22;11659;51.092;7.080;2022-08-25T10:54:06;30.10;76.00
22986;DHT22;11659;51.092;7.080;2022-08-25T10:56:37;30.20;75.80
22986;DHT22;11659;51.092;7.080;2022-08-25T10:59:15;30.20;75.20
22986;DHT22;11659;51.092;7.080;2022-08-25T11:01:56;30.20;74.90
22986;DHT22;11659;51.092;7.080;2022-08-25T11:04:31;30.30;74.50
22986;DHT22;11659;51.092;7.080;2022-08-25T11:07:07;30.30;74.20
22986;DHT22;11659;51.092;7.080;2022-08-25T11:09:37;30.30;74.80
22986;DHT22;11659;51.092;7.080;2022-08-25T11:12:09;30.40;74.60
22986;DHT22;11659;51.092;7.080;2022-08-25T11:14:39;30.50;74.60
22986;DHT22;11659;51.092;7.080;2022-08-25T11:17:11;30.70;73.30
22986;DHT22;11659;51.092;7.080;2022-08-25T11:19:42;30.70;72.90
22986;DHT22;11659;51.092;7.080;2022-08-25T11:22:16;30.80;72.90
22986;DHT22;11659;51.092;7.080;2022-08-25T11:24:53;31.00;72.80
22986;DHT22;11659;51.092;7.080;2022-08-25T11:27:26;31.20;71.50
22986;DHT22;11659;51.092;7.080;2022-08-25T11:29:58;31.30;71.20
22986;DHT22;11659;51.092;7.080;2022-08-25T11:32:26;31.50;70.90
22986;DHT22;11659;51.092;7.080;2022-08-25T11:35:00;31.60;70.70
22986;DHT22;11659;51.092;7.080;2022-08-25T11:37:29;31.80;70.30
22986;DHT22;11659;51.092;7.080;2022-08-25T11:40:32;31.90;69.90
22986;DHT22;11659;51.092;7.080;2022-08-25T11:43:07;32.10;70.00
22986;DHT22;11659;51.092;7.080;2022-08-25T11:45:53;32.50;70.10
22986;DHT22;11659;51.092;7.080;2022-08-25T11:48:37;32.70;69.40
22986;DHT22;11659;51.092;7.080;2022-08-25T11:51:07;32.90;68.00
22986;DHT22;11659;51.092;7.080;2022-08-25T11:53:37;33.00;67.60
22986;DHT22;11659;51.092;7.080;2022-08-25T11:56:06;33.10;67.50
22986;DHT22;11659;51.092;7.080;2022-08-25T11:58:40;33.30;66.60
22986;DHT22;11659;51.092;7.080;2022-08-25T12:01:10;33.40;66.60
22986;DHT22;11659;51.092;7.080;2022-08-25T12:04:11;33.60;65.10
22986;DHT22;11659;51.092;7.080;2022-08-25T12:13:00;33.80;64.80
22986;DHT22;11659;51.092;7.080;2022-08-25T12:15:32;33.90;63.90
22986;DHT22;11659;51.092;7.080;2022-08-25T12:18:11;33.90;63.10
22986;DHT22;11659;51.092;7.080;2022-08-25T12:21:10;34.00;63.30
22986;DHT22;11659;51.092;7.080;2022-08-25T12:23:38;34.10;63.40
22986;DHT22;11659;51.092;7.080;2022-08-25T12:26:10;34.40;62.80
22986;DHT22;11659;51.092;7.080;2022-08-25T12:28:52;34.50;62.80
22986;DHT22;11659;51.092;7.080;2022-08-25T12:31:31;34.60;61.90
22986;DHT22;11659;51.092;7.080;2022-08-25T12:34:15;34.70;61.60
22986;DHT22;11659;51.092;7.080;2022-08-25T12:36:55;34.60;62.00
22986;DHT22;11659;51.092;7.080;2022-08-25T12:39:28;34.80;62.50
22986;DHT22;11659;51.092;7.080;2022-08-25T12:41:57;35.10;62.30
22986;DHT22;11659;51.092;7.080;2022-08-25T12:44:39;35.30;60.90
22986;DHT22;11659;51.092;7.080;2022-08-25T12:47:11;35.50;60.80
22986;DHT22;11659;51.092;7.080;2022-08-25T12:49:38;35.60;60.20
22986;DHT22;11659;51.092;7.080;2022-08-25T12:52:06;35.60;59.80
22986;DHT22;11659;51.092;7.080;2022-08-25T12:54:41;35.60;60.10
22986;DHT22;11659;51.092;7.080;2022-08-25T12:57:22;35.80;60.90
22986;DHT22;11659;51.092;7.080;2022-08-25T12:59:57;35.90;59.90
22986;DHT22;11659;51.092;7.080;2022-08-25T13:02:52;36.00;60.00
22986;DHT22;11659;51.092;7.080;2022-08-25T13:11:26;35.70;59.30
22986;DHT22;11659;51.092;7.080;2022-08-25T13:13:59;35.70;59.70
22986;DHT22;11659;51.092;7.080;2022-08-25T13:16:28;35.50;59.90
22986;DHT22;11659;51.092;7.080;2022-08-25T13:18:56;35.30;59.30
22986;DHT22;11659;51.092;7.080;2022-08-25T13:21:28;35.10;59.30
22986;DHT22;11659;51.092;7.080;2022-08-25T13:23:57;34.90;59.10
22986;DHT22;11659;51.092;7.080;2022-08-25T13:26:26;34.70;59.50
22986;DHT22;11659;51.092;7.080;2022-08-25T13:28:55;34.50;59.50
22986;DHT22;11659;51.092;7.080;2022-08-25T13:31:23;34.30;59.50
22986;DHT22;11659;51.092;7.080;2022-08-25T13:33:56;34.10;59.70
22986;DHT22;11659;51.092;7.080;2022-08-25T13:36:24;33.80;60.20
22986;DHT22;11659;51.092;7.080;2022-08-25T13:39:11;33.70;60.80
22986;DHT22;11659;51.092;7.080;2022-08-25T13:41:43;33.50;60.70
22986;DHT22;11659;51.092;7.080;2022-08-25T13:44:11;33.50;61.40
22986;DHT22;11659;51.092;7.080;2022-08-25T13:46:37;33.30;60.80
22986;DHT22;11659;51.092;7.080;2022-08-25T13:49:06;33.20;61.20
22986;DHT22;11659;51.092;7.080;2022-08-25T13:51:32;33.10;61.30
22986;DHT22;11659;51.092;7.080;2022-08-25T13:54:01;33.00;61.60
22986;DHT22;11659;51.092;7.080;2022-08-25T13:56:30;33.00;61.70
22986;DHT22;11659;51.092;7.080;2022-08-25T13:58:59;32.90;61.60
22986;DHT22;11659;51.092;7.080;2022-08-25T14:01:27;32.90;61.10
22986;DHT22;11659;51.092;7.080;2022-08-25T14:03:56;32.90;61.30
22986;DHT22;11659;51.092;7.080;2022-08-25T14:06:25;32.90;61.60
22986;DHT22;11659;51.092;7.080;2022-08-25T14:09:10;32.90;62.00
22986;DHT22;11659;51.092;7.080;2022-08-25T14:11:42;33.00;61.80
22986;DHT22;11659;51.092;7.080;2022-08-25T14:14:11;33.00;61.90
22986;DHT22;11659;51.092;7.080;2022-08-25T14:16:39;33.00;62.30
22986;DHT22;11659;51.092;7.080;2022-08-25T14:19:13;33.00;61.90
22986;DHT22;11659;51.092;7.080;2022-08-25T14:21:41;33.00;61.10
22986;DHT22;11659;51.092;7.080;2022-08-25T14:24:08;32.90;61.30
22986;DHT22;11659;51.092;7.080;2022-08-25T14:26:34;33.00;60.80
22986;DHT22;11659;51.092;7.080;2022-08-25T14:29:00;32.90;60.20
22986;DHT22;11659;51.092;7.080;2022-08-25T14:31:28;32.90;59.90
22986;DHT22;11659;51.092;7.080;2022-08-25T14:33:56;32.80;59.60
22986;DHT22;11659;51.092;7.080;2022-08-25T14:36:23;32.70;59.80
22986;DHT22;11659;51.092;7.080;2022-08-25T14:38:50;32.50;60.00
22986;DHT22;11659;51.092;7.080;2022-08-25T14:41:19;32.50;60.40
22986;DHT22;11659;51.092;7.080;2022-08-25T14:43:45;32.40;60.50
22986;DHT22;11659;51.092;7.080;2022-08-25T14:46:17;32.30;60.10
22986;DHT22;11659;51.092;7.080;2022-08-25T14:48:46;32.30;60.20
22986;DHT22;11659;51.092;7.080;2022-08-25T14:51:14;32.30;59.70
22986;DHT22;11659;51.092;7.080;2022-08-25T14:53:41;32.30;59.30
22986;DHT22;11659;51.092;7.080;2022-08-25T14:56:09;32.30;59.40
22986;DHT22;11659;51.092;7.080;2022-08-25T14:58:35;32.30;59.30
22986;DHT22;11659;51.092;7.080;2022-08-25T15:01:02;32.30;59.40
22986;DHT22;11659;51.092;7.080;2022-08-25T15:03:33;32.30;59.30
22986;DHT22;11659;51.092;7.080;2022-08-25T15:06:00;32.30;59.50
22986;DHT22;11659;51.092;7.080;2022-08-25T15:08:27;32.30;59.60
22986;DHT22;11659;51.092;7.080;2022-08-25T15:11:13;32.30;59.70
22986;DHT22;11659;51.092;7.080;2022-08-25T15:13:39;32.30;59.60
22986;DHT22;11659;51.092;7.080;2022-08-25T15:16:08;32.30;59.50
22986;DHT22;11659;51.092;7.080;2022-08-25T15:18:35;32.30;59.70
22986;DHT22;11659;51.092;7.080;2022-08-25T15:21:01;32.20;59.40
22986;DHT22;11659;51.092;7.080;2022-08-25T15:23:27;32.20;59.40
22986;DHT22;11659;51.092;7.080;2022-08-25T15:25:54;32.20;59.70
22986;DHT22;11659;51.092;7.080;2022-08-25T15:28:23;32.20;60.00
22986;DHT22;11659;51.092;7.080;2022-08-25T15:30:49;32.30;60.30
22986;DHT22;11659;51.092;7.080;2022-08-25T15:33:15;32.30;60.40
22986;DHT22;11659;51.092;7.080;2022-08-25T15:35:42;32.30;60.40
22986;DHT22;11659;51.092;7.080;2022-08-25T15:38:09;32.30;60.20
22986;DHT22;11659;51.092;7.080;2022-08-25T15:40:35;32.30;60.00
22986;DHT22;11659;51.092;7.080;2022-08-25T15:43:03;32.30;59.50
22986;DHT22;11659;51.092;7.080;2022-08-25T15:45:31;32.30;59.30
22986;DHT22;11659;51.092;7.080;2022-08-25T15:47:57;32.30;59.00
22986;DHT22;11659;51.092;7.080;2022-08-25T15:50:23;32.30;59.10
22986;DHT22;11659;51.092;7.080;2022-08-25T15:52:51;32.30;58.90
22986;DHT22;11659;51.092;7.080;2022-08-25T15:55:17;32.20;59.40
22986;DHT22;11659;51.092;7.080;2022-08-25T15:57:43;32.20;58.80